sensor_id;sensor_type;location;lat;lon;timestamp;P1;durP1;ratioP1;P2;durP2;ratioP2
1336;SDS011;662;48.814;9.318;2024-03-22T00:00:39;11.83;;;10.30;;
1336;SDS011;662;48.814;9.318;2024-03-22T00:03:04;12.57;;;10.40;;
1336;SDS011;662;48.814;9.318;2024-03-22T00:05:30;12.33;;;9.70;;
1336;SDS011;662;48.814;9.318;2024-03-22T00:07:55;13.00;;;10.43;;
1336;SDS011;662;48.814;9.318;2024-03-22T00:10:21;14.93;;;10.50;;
1336;SDS011;662;48.814;9.318;2024-03-22T00:12:48;10.83;;;9.27;;
1336;SDS011;662;48.814;9.318;2024-03-22T00:15:14;11.27;;;9.90;;
1336;SDS011;662;48.814;9.318;2024-03-22T00:17:40;13.60;;;10.47;;
1336;SDS011;662;48.814;9.318;2024-03-22T00:20:07;12.37;;;10.30;;
1336;SDS011;662;48.814;9.318;2024-03-22T00:22:33;12.47;;;8.93;;
1336;SDS011;662;48.814;9.318;2024-03-22T00:24:58;13.73;;;10.13;;
1336;SDS011;662;48.814;9.318;2024-03-22T00:27:24;11.80;;;10.60;;
1336;SDS011;662;48.814;9.318;2024-03-22T00:29:50;12.33;;;8.73;;
1336;SDS011;662;48.814;9.318;2024-03-22T00:32:15;10.80;;;9.13;;
1336;SDS011;662;48.814;9.318;2024-03-22T00:34:41;10.37;;;9.37;;
1336;SDS011;662;48.814;9.318;2024-03-22T00:37:06;13.60;;;9.20;;
1336;SDS011;662;48.814;9.318;2024-03-22T00:39:32;10.17;;;9.13;;
1336;SDS011;662;48.814;9.318;2024-03-22T00:41:58;9.90;;;8.77;;
1336;SDS011;662;48.814;9.318;2024-03-22T00:44:23;10.53;;;9.10;;
1336;SDS011;662;48.814;9.318;2024-03-22T00:46:49;11.83;;;9.00;;
1336;SDS011;662;48.814;9.318;2024-03-22T00:49:14;10.33;;;9.27;;
1336;SDS011;662;48.814;9.318;2024-03-22T00:51:40;9.53;;;8.63;;
1336;SDS011;662;48.814;9.318;2024-03-22T00:54:08;9.97;;;8.87;;
1336;SDS011;662;48.814;9.318;2024-03-22T00:56:34;10.27;;;9.10;;
1336;SDS011;662;48.814;9.318;2024-03-22T00:58:59;11.93;;;10.00;;
1336;SDS011;662;48.814;9.318;2024-03-22T01:01:25;10.73;;;8.93;;
1336;SDS011;662;48.814;9.318;2024-03-22T01:03:51;10.60;;;8.60;;
1336;SDS011;662;48.814;9.318;2024-03-22T01:06:16;10.73;;;8.90;;
1336;SDS011;662;48.814;9.318;2024-03-22T01:08:47;10.17;;;9.17;;
1336;SDS011;662;48.814;9.318;2024-03-22T01:11:13;11.80;;;9.70;;
1336;SDS011;662;48.814;9.318;2024-03-22T01:13:38;11.33;;;9.67;;
1336;SDS011;662;48.814;9.318;2024-03-22T01:16:04;9.50;;;8.60;;
1336;SDS011;662;48.814;9.318;2024-03-22T01:18:30;9.93;;;8.93;;
1336;SDS011;662;48.814;9.318;2024-03-22T01:20:56;10.70;;;8.93;;
1336;SDS011;662;48.814;9.318;2024-03-22T01:23:21;10.23;;;9.07;;
1336;SDS011;662;48.814;9.318;2024-03-22T01:25:47;13.60;;;9.20;;
1336;SDS011;662;48.814;9.318;2024-03-22T01:28:12;9.70;;;8.63;;
1336;SDS011;662;48.814;9.318;2024-03-22T01:30:38;9.30;;;8.33;;
1336;SDS011;662;48.814;9.318;2024-03-22T01:33:04;11.47;;;8.70;;
1336;SDS011;662;48.814;9.318;2024-03-22T01:35:29;14.03;;;10.23;;
1336;SDS011;662;48.814;9.318;2024-03-22T01:37:55;11.90;;;9.50;;
1336;SDS011;662;48.814;9.318;2024-03-22T01:40:20;9.73;;;8.50;;
1336;SDS011;662;48.814;9.318;2024-03-22T01:42:46;10.13;;;8.60;;
1336;SDS011;662;48.814;9.318;2024-03-22T01:45:12;9.10;;;8.20;;
1336;SDS011;662;48.814;9.318;2024-03-22T01:47:39;8.83;;;7.93;;
1336;SDS011;662;48.814;9.318;2024-03-22T01:50:06;10.47;;;8.57;;
1336;SDS011;662;48.814;9.318;2024-03-22T01:52:32;9.97;;;8.87;;
1336;SDS011;662;48.814;9.318;2024-03-22T01:54:58;10.77;;;8.80;;
1336;SDS011;662;48.814;9.318;2024-03-22T01:57:24;10.93;;;8.87;;
1336;SDS011;662;48.814;9.318;2024-03-22T01:59:51;12.43;;;8.53;;
1336;SDS011;662;48.814;9.318;2024-03-22T02:02:20;10.20;;;8.70;;
1336;SDS011;662;48.814;9.318;2024-03-22T02:04:46;10.73;;;9.33;;
1336;SDS011;662;48.814;9.318;2024-03-22T02:07:16;14.60;;;9.20;;
1336;SDS011;662;48.814;9.318;2024-03-22T02:09:41;9.50;;;8.27;;
1336;SDS011;662;48.814;9.318;2024-03-22T02:12:07;11.77;;;10.57;;
1336;SDS011;662;48.814;9.318;2024-03-22T02:14:33;12.03;;;9.50;;
1336;SDS011;662;48.814;9.318;2024-03-22T02:16:58;14.30;;;11.30;;
1336;SDS011;662;48.814;9.318;2024-03-22T02:19:24;11.40;;;10.10;;
1336;SDS011;662;48.814;9.318;2024-03-22T02:21:49;11.00;;;9.80;;
1336;SDS011;662;48.814;9.318;2024-03-22T02:24:15;12.53;;;10.27;;
1336;SDS011;662;48.814;9.318;2024-03-22T02:26:41;16.50;;;10.07;;
1336;SDS011;662;48.814;9.318;2024-03-22T02:29:06;12.73;;;10.03;;
1336;SDS011;662;48.814;9.318;2024-03-22T02:31:32;13.63;;;10.23;;
1336;SDS011;662;48.814;9.318;2024-03-22T02:33:58;15.03;;;9.50;;
1336;SDS011;662;48.814;9.318;2024-03-22T02:36:23;13.40;;;10.33;;
1336;SDS011;662;48.814;9.318;2024-03-22T02:38:49;12.30;;;9.60;;
1336;SDS011;662;48.814;9.318;2024-03-22T02:41:14;12.13;;;10.17;;
1336;SDS011;662;48.814;9.318;2024-03-22T02:43:40;10.87;;;8.63;;
1336;SDS011;662;48.814;9.318;2024-03-22T02:46:05;12.10;;;9.50;;
1336;SDS011;662;48.814;9.318;2024-03-22T02:48:31;11.37;;;10.17;;
1336;SDS011;662;48.814;9.318;2024-03-22T02:50:57;10.33;;;9.33;;
1336;SDS011;662;48.814;9.318;2024-03-22T02:53:22;10.33;;;9.17;;
1336;SDS011;662;48.814;9.318;2024-03-22T02:55:48;12.43;;;9.43;;
1336;SDS011;662;48.814;9.318;2024-03-22T02:58:14;12.13;;;9.70;;
1336;SDS011;662;48.814;9.318;2024-03-22T03:00:39;14.63;;;10.60;;
1336;SDS011;662;48.814;9.318;2024-03-22T03:03:06;11.00;;;9.70;;
1336;SDS011;662;48.814;9.318;2024-03-22T03:05:32;14.23;;;10.57;;
1336;SDS011;662;48.814;9.318;2024-03-22T03:07:57;11.40;;;10.00;;
1336;SDS011;662;48.814;9.318;2024-03-22T03:10:23;12.13;;;9.87;;
1336;SDS011;662;48.814;9.318;2024-03-22T03:12:49;12.53;;;10.57;;
1336;SDS011;662;48.814;9.318;2024-03-22T03:15:15;14.07;;;10.73;;
1336;SDS011;662;48.814;9.318;2024-03-22T03:17:41;18.90;;;12.67;;
1336;SDS011;662;48.814;9.318;2024-03-22T03:20:06;14.23;;;11.60;;
1336;SDS011;662;48.814;9.318;2024-03-22T03:22:33;14.63;;;12.03;;
1336;SDS011;662;48.814;9.318;2024-03-22T03:25:00;15.50;;;13.03;;
1336;SDS011;662;48.814;9.318;2024-03-22T03:27:25;16.17;;;13.63;;
1336;SDS011;662;48.814;9.318;2024-03-22T03:29:51;14.83;;;12.80;;
1336;SDS011;662;48.814;9.318;2024-03-22T03:32:17;15.93;;;12.47;;
1336;SDS011;662;48.814;9.318;2024-03-22T03:34:42;16.87;;;13.40;;
1336;SDS011;662;48.814;9.318;2024-03-22T03:37:08;14.70;;;11.63;;
1336;SDS011;662;48.814;9.318;2024-03-22T03:39:33;13.23;;;11.50;;
1336;SDS011;662;48.814;9.318;2024-03-22T03:41:59;12.67;;;11.13;;
1336;SDS011;662;48.814;9.318;2024-03-22T03:44:25;12.93;;;10.60;;
1336;SDS011;662;48.814;9.318;2024-03-22T03:46:50;16.10;;;11.63;;
1336;SDS011;662;48.814;9.318;2024-03-22T03:49:16;12.33;;;10.13;;
1336;SDS011;662;48.814;9.318;2024-03-22T03:51:41;13.27;;;10.33;;
1336;SDS011;662;48.814;9.318;2024-03-22T03:54:07;14.87;;;10.80;;
1336;SDS011;662;48.814;9.318;2024-03-22T03:56:33;11.00;;;9.47;;
1336;SDS011;662;48.814;9.318;2024-03-22T03:58:58;10.27;;;8.80;;
1336;SDS011;662;48.814;9.318;2024-03-22T04:01:24;10.97;;;8.57;;
1336;SDS011;662;48.814;9.318;2024-03-22T04:03:49;10.90;;;8.27;;
1336;SDS011;662;48.814;9.318;2024-03-22T04:06:15;11.97;;;9.17;;
1336;SDS011;662;48.814;9.318;2024-03-22T04:08:42;9.67;;;7.33;;
1336;SDS011;662;48.814;9.318;2024-03-22T04:11:08;9.73;;;8.23;;
1336;SDS011;662;48.814;9.318;2024-03-22T04:13:34;10.63;;;8.47;;
1336;SDS011;662;48.814;9.318;2024-03-22T04:15:59;9.37;;;8.37;;
1336;SDS011;662;48.814;9.318;2024-03-22T04:18:25;10.70;;;9.67;;
1336;SDS011;662;48.814;9.318;2024-03-22T04:20:54;9.23;;;7.73;;
1336;SDS011;662;48.814;9.318;2024-03-22T04:23:21;10.97;;;8.90;;
1336;SDS011;662;48.814;9.318;2024-03-22T04:25:57;9.80;;;7.47;;
1336;SDS011;662;48.814;9.318;2024-03-22T04:28:25;8.50;;;7.70;;
1336;SDS011;662;48.814;9.318;2024-03-22T04:30:55;9.90;;;8.33;;
1336;SDS011;662;48.814;9.318;2024-03-22T04:33:21;10.03;;;7.87;;
1336;SDS011;662;48.814;9.318;2024-03-22T04:35:46;10.27;;;9.17;;
1336;SDS011;662;48.814;9.318;2024-03-22T04:38:12;10.00;;;9.00;;
1336;SDS011;662;48.814;9.318;2024-03-22T04:40:38;13.27;;;9.27;;
1336;SDS011;662;48.814;9.318;2024-03-22T04:43:04;11.20;;;10.10;;
1336;SDS011;662;48.814;9.318;2024-03-22T04:45:30;10.63;;;9.63;;
1336;SDS011;662;48.814;9.318;2024-03-22T04:47:55;10.60;;;9.13;;
1336;SDS011;662;48.814;9.318;2024-03-22T04:50:21;12.07;;;8.83;;
1336;SDS011;662;48.814;9.318;2024-03-22T04:52:46;9.60;;;8.60;;
1336;SDS011;662;48.814;9.318;2024-03-22T04:55:12;12.57;;;8.50;;
1336;SDS011;662;48.814;9.318;2024-03-22T04:57:38;10.07;;;9.03;;
1336;SDS011;662;48.814;9.318;2024-03-22T05:00:03;13.13;;;9.30;;
1336;SDS011;662;48.814;9.318;2024-03-22T05:02:32;10.90;;;8.50;;
1336;SDS011;662;48.814;9.318;2024-03-22T05:04:57;9.93;;;8.80;;
1336;SDS011;662;48.814;9.318;2024-03-22T05:07:23;9.43;;;8.20;;
1336;SDS011;662;48.814;9.318;2024-03-22T05:09:49;12.67;;;9.23;;
1336;SDS011;662;48.814;9.318;2024-03-22T05:12:14;10.77;;;8.30;;
1336;SDS011;662;48.814;9.318;2024-03-22T05:14:40;9.90;;;8.67;;
1336;SDS011;662;48.814;9.318;2024-03-22T05:17:05;10.53;;;9.27;;
1336;SDS011;662;48.814;9.318;2024-03-22T05:19:31;13.90;;;8.50;;
1336;SDS011;662;48.814;9.318;2024-03-22T05:21:56;11.50;;;9.30;;
1336;SDS011;662;48.814;9.318;2024-03-22T05:24:22;10.93;;;8.70;;
1336;SDS011;662;48.814;9.318;2024-03-22T05:26:48;10.30;;;8.40;;
1336;SDS011;662;48.814;9.318;2024-03-22T05:29:13;10.90;;;8.43;;
1336;SDS011;662;48.814;9.318;2024-03-22T05:31:46;15.50;;;9.30;;
1336;SDS011;662;48.814;9.318;2024-03-22T05:34:17;10.30;;;8.93;;
1336;SDS011;662;48.814;9.318;2024-03-22T05:36:43;12.57;;;9.77;;
1336;SDS011;662;48.814;9.318;2024-03-22T05:39:09;11.97;;;9.60;;
1336;SDS011;662;48.814;9.318;2024-03-22T05:41:38;10.90;;;9.10;;
1336;SDS011;662;48.814;9.318;2024-03-22T05:44:03;10.37;;;9.27;;
1336;SDS011;662;48.814;9.318;2024-03-22T05:46:30;10.60;;;9.40;;
1336;SDS011;662;48.814;9.318;2024-03-22T05:48:56;11.83;;;9.30;;
1336;SDS011;662;48.814;9.318;2024-03-22T05:51:25;13.47;;;8.57;;
1336;SDS011;662;48.814;9.318;2024-03-22T05:53:51;10.50;;;9.10;;
1336;SDS011;662;48.814;9.318;2024-03-22T05:56:17;10.17;;;9.17;;
1336;SDS011;662;48.814;9.318;2024-03-22T05:58:43;10.53;;;9.43;;
1336;SDS011;662;48.814;9.318;2024-03-22T06:01:09;12.60;;;10.00;;
1336;SDS011;662;48.814;9.318;2024-03-22T06:03:34;12.70;;;10.47;;
1336;SDS011;662;48.814;9.318;2024-03-22T06:06:00;12.60;;;8.50;;
1336;SDS011;662;48.814;9.318;2024-03-22T06:08:26;11.67;;;10.20;;
1336;SDS011;662;48.814;9.318;2024-03-22T06:10:52;12.30;;;10.10;;
1336;SDS011;662;48.814;9.318;2024-03-22T06:13:19;10.37;;;9.20;;
1336;SDS011;662;48.814;9.318;2024-03-22T06:15:44;12.07;;;9.93;;
1336;SDS011;662;48.814;9.318;2024-03-22T06:18:14;12.00;;;9.40;;
1336;SDS011;662;48.814;9.318;2024-03-22T06:20:40;11.80;;;8.87;;
1336;SDS011;662;48.814;9.318;2024-03-22T06:23:06;14.17;;;10.47;;
1336;SDS011;662;48.814;9.318;2024-03-22T06:25:36;14.07;;;11.27;;
1336;SDS011;662;48.814;9.318;2024-03-22T06:28:01;13.50;;;10.57;;
1336;SDS011;662;48.814;9.318;2024-03-22T06:30:27;10.33;;;9.27;;
1336;SDS011;662;48.814;9.318;2024-03-22T06:32:53;17.10;;;9.77;;
1336;SDS011;662;48.814;9.318;2024-03-22T06:35:22;11.23;;;10.03;;
1336;SDS011;662;48.814;9.318;2024-03-22T06:37:47;14.70;;;10.00;;
1336;SDS011;662;48.814;9.318;2024-03-22T06:40:17;14.50;;;10.50;;
1336;SDS011;662;48.814;9.318;2024-03-22T06:42:42;15.37;;;10.87;;
1336;SDS011;662;48.814;9.318;2024-03-22T06:45:08;12.50;;;10.30;;
1336;SDS011;662;48.814;9.318;2024-03-22T06:47:36;12.23;;;10.50;;
1336;SDS011;662;48.814;9.318;2024-03-22T06:50:02;12.47;;;10.23;;
1336;SDS011;662;48.814;9.318;2024-03-22T06:52:28;11.43;;;10.20;;
1336;SDS011;662;48.814;9.318;2024-03-22T06:54:54;11.03;;;9.50;;
1336;SDS011;662;48.814;9.318;2024-03-22T06:57:22;10.20;;;9.20;;
1336;SDS011;662;48.814;9.318;2024-03-22T06:59:53;14.73;;;9.80;;
1336;SDS011;662;48.814;9.318;2024-03-22T07:02:25;12.83;;;10.20;;
1336;SDS011;662;48.814;9.318;2024-03-22T07:04:50;12.13;;;10.93;;
1336;SDS011;662;48.814;9.318;2024-03-22T07:07:17;16.97;;;12.73;;
1336;SDS011;662;48.814;9.318;2024-03-22T07:09:43;11.37;;;10.17;;
1336;SDS011;662;48.814;9.318;2024-03-22T07:12:09;12.97;;;9.93;;
1336;SDS011;662;48.814;9.318;2024-03-22T07:14:35;12.73;;;9.77;;
1336;SDS011;662;48.814;9.318;2024-03-22T07:17:00;16.37;;;10.97;;
1336;SDS011;662;48.814;9.318;2024-03-22T07:19:26;15.33;;;11.07;;
1336;SDS011;662;48.814;9.318;2024-03-22T07:21:53;14.17;;;11.33;;
1336;SDS011;662;48.814;9.318;2024-03-22T07:24:19;13.00;;;9.97;;
1336;SDS011;662;48.814;9.318;2024-03-22T07:26:44;15.90;;;11.40;;
1336;SDS011;662;48.814;9.318;2024-03-22T07:29:11;13.87;;;11.20;;
1336;SDS011;662;48.814;9.318;2024-03-22T07:31:37;14.80;;;10.50;;
1336;SDS011;662;48.814;9.318;2024-03-22T07:34:02;13.40;;;10.60;;
1336;SDS011;662;48.814;9.318;2024-03-22T07:36:30;14.40;;;10.13;;
1336;SDS011;662;48.814;9.318;2024-03-22T07:38:56;14.20;;;10.03;;
1336;SDS011;662;48.814;9.318;2024-03-22T07:41:23;13.03;;;11.13;;
1336;SDS011;662;48.814;9.318;2024-03-22T07:43:48;13.50;;;10.80;;
1336;SDS011;662;48.814;9.318;2024-03-22T07:46:14;18.03;;;11.90;;
1336;SDS011;662;48.814;9.318;2024-03-22T07:48:40;14.20;;;10.70;;
1336;SDS011;662;48.814;9.318;2024-03-22T07:51:06;12.47;;;10.83;;
1336;SDS011;662;48.814;9.318;2024-03-22T07:53:31;14.63;;;10.90;;
1336;SDS011;662;48.814;9.318;2024-03-22T07:55:57;15.83;;;12.13;;
1336;SDS011;662;48.814;9.318;2024-03-22T07:58:22;14.67;;;13.00;;
1336;SDS011;662;48.814;9.318;2024-03-22T08:00:48;15.80;;;12.87;;
1336;SDS011;662;48.814;9.318;2024-03-22T08:03:14;12.03;;;10.27;;
1336;SDS011;662;48.814;9.318;2024-03-22T08:05:41;13.90;;;11.40;;
1336;SDS011;662;48.814;9.318;2024-03-22T08:08:07;13.60;;;11.10;;
1336;SDS011;662;48.814;9.318;2024-03-22T08:10:32;15.93;;;11.80;;
1336;SDS011;662;48.814;9.318;2024-03-22T08:12:58;14.97;;;11.40;;
1336;SDS011;662;48.814;9.318;2024-03-22T08:15:25;21.83;;;13.53;;
1336;SDS011;662;48.814;9.318;2024-03-22T08:17:51;14.03;;;12.73;;
1336;SDS011;662;48.814;9.318;2024-03-22T08:20:19;14.80;;;12.83;;
1336;SDS011;662;48.814;9.318;2024-03-22T08:22:45;13.73;;;11.53;;
1336;SDS011;662;48.814;9.318;2024-03-22T08:25:11;15.13;;;12.03;;
1336;SDS011;662;48.814;9.318;2024-03-22T08:27:37;11.90;;;10.63;;
1336;SDS011;662;48.814;9.318;2024-03-22T08:30:03;13.27;;;10.57;;
1336;SDS011;662;48.814;9.318;2024-03-22T08:32:29;11.10;;;10.07;;
1336;SDS011;662;48.814;9.318;2024-03-22T08:34:54;14.37;;;11.10;;
1336;SDS011;662;48.814;9.318;2024-03-22T08:37:20;14.37;;;11.40;;
1336;SDS011;662;48.814;9.318;2024-03-22T08:39:46;19.77;;;10.77;;
1336;SDS011;662;48.814;9.318;2024-03-22T08:42:12;17.10;;;11.00;;
1336;SDS011;662;48.814;9.318;2024-03-22T08:44:37;14.40;;;11.57;;
1336;SDS011;662;48.814;9.318;2024-03-22T08:47:04;11.97;;;9.67;;
1336;SDS011;662;48.814;9.318;2024-03-22T08:49:29;14.20;;;11.20;;
1336;SDS011;662;48.814;9.318;2024-03-22T08:51:55;12.30;;;10.60;;
1336;SDS011;662;48.814;9.318;2024-03-22T08:54:20;14.70;;;9.77;;
1336;SDS011;662;48.814;9.318;2024-03-22T08:56:46;12.43;;;10.10;;
1336;SDS011;662;48.814;9.318;2024-03-22T08:59:12;13.63;;;9.93;;
1336;SDS011;662;48.814;9.318;2024-03-22T09:01:37;10.87;;;9.57;;
1336;SDS011;662;48.814;9.318;2024-03-22T09:04:03;15.43;;;10.33;;
1336;SDS011;662;48.814;9.318;2024-03-22T09:06:29;13.43;;;10.40;;
1336;SDS011;662;48.814;9.318;2024-03-22T09:08:55;12.60;;;9.90;;
1336;SDS011;662;48.814;9.318;2024-03-22T09:11:23;11.50;;;9.90;;
1336;SDS011;662;48.814;9.318;2024-03-22T09:13:54;12.90;;;10.17;;
1336;SDS011;662;48.814;9.318;2024-03-22T09:16:20;11.17;;;10.00;;
1336;SDS011;662;48.814;9.318;2024-03-22T09:18:46;10.43;;;8.90;;
1336;SDS011;662;48.814;9.318;2024-03-22T09:21:12;10.70;;;9.10;;
1336;SDS011;662;48.814;9.318;2024-03-22T09:23:37;10.40;;;9.27;;
1336;SDS011;662;48.814;9.318;2024-03-22T09:26:03;11.00;;;9.37;;
1336;SDS011;662;48.814;9.318;2024-03-22T09:28:29;12.63;;;8.93;;
1336;SDS011;662;48.814;9.318;2024-03-22T09:30:55;10.70;;;8.73;;
1336;SDS011;662;48.814;9.318;2024-03-22T09:33:21;12.60;;;9.00;;
1336;SDS011;662;48.814;9.318;2024-03-22T09:35:47;13.23;;;10.90;;
1336;SDS011;662;48.814;9.318;2024-03-22T09:38:12;10.97;;;9.50;;
1336;SDS011;662;48.814;9.318;2024-03-22T09:40:40;17.60;;;10.73;;
1336;SDS011;662;48.814;9.318;2024-03-22T09:43:06;11.10;;;9.67;;
1336;SDS011;662;48.814;9.318;2024-03-22T09:45:33;12.30;;;9.70;;
1336;SDS011;662;48.814;9.318;2024-03-22T09:47:59;10.60;;;9.37;;
1336;SDS011;662;48.814;9.318;2024-03-22T09:50:25;11.03;;;8.60;;
1336;SDS011;662;48.814;9.318;2024-03-22T09:52:51;10.23;;;9.20;;
1336;SDS011;662;48.814;9.318;2024-03-22T09:55:27;9.60;;;8.30;;
1336;SDS011;662;48.814;9.318;2024-03-22T09:57:53;9.57;;;8.53;;
1336;SDS011;662;48.814;9.318;2024-03-22T10:00:20;12.23;;;8.30;;
1336;SDS011;662;48.814;9.318;2024-03-22T10:02:47;10.53;;;7.60;;
1336;SDS011;662;48.814;9.318;2024-03-22T10:05:14;8.47;;;7.40;;
1336;SDS011;662;48.814;9.318;2024-03-22T10:07:40;9.50;;;8.03;;
1336;SDS011;662;48.814;9.318;2024-03-22T10:10:07;12.47;;;8.60;;
1336;SDS011;662;48.814;9.318;2024-03-22T10:12:33;8.73;;;7.80;;
1336;SDS011;662;48.814;9.318;2024-03-22T10:14:59;9.47;;;8.40;;
1336;SDS011;662;48.814;9.318;2024-03-22T10:17:26;9.00;;;7.07;;
1336;SDS011;662;48.814;9.318;2024-03-22T10:19:53;7.53;;;6.73;;
1336;SDS011;662;48.814;9.318;2024-03-22T10:22:19;8.70;;;6.47;;
1336;SDS011;662;48.814;9.318;2024-03-22T10:24:45;12.23;;;7.30;;
1336;SDS011;662;48.814;9.318;2024-03-22T10:27:10;9.60;;;6.80;;
1336;SDS011;662;48.814;9.318;2024-03-22T10:29:36;12.20;;;7.10;;
1336;SDS011;662;48.814;9.318;2024-03-22T10:32:02;7.83;;;6.17;;
1336;SDS011;662;48.814;9.318;2024-03-22T10:34:28;7.27;;;5.60;;
1336;SDS011;662;48.814;9.318;2024-03-22T10:36:57;7.27;;;5.50;;
1336;SDS011;662;48.814;9.318;2024-03-22T10:39:24;7.10;;;6.17;;
1336;SDS011;662;48.814;9.318;2024-03-22T10:41:51;6.70;;;5.77;;
1336;SDS011;662;48.814;9.318;2024-03-22T10:44:16;6.77;;;6.07;;
1336;SDS011;662;48.814;9.318;2024-03-22T10:46:48;12.23;;;6.10;;
1336;SDS011;662;48.814;9.318;2024-03-22T10:49:17;8.47;;;6.63;;
1336;SDS011;662;48.814;9.318;2024-03-22T10:51:46;6.70;;;6.10;;
1336;SDS011;662;48.814;9.318;2024-03-22T10:54:33;12.67;;;6.20;;
1336;SDS011;662;48.814;9.318;2024-03-22T10:57:02;8.20;;;5.10;;
1336;SDS011;662;48.814;9.318;2024-03-22T10:59:33;8.63;;;6.90;;
1336;SDS011;662;48.814;9.318;2024-03-22T11:02:02;7.10;;;5.33;;
1336;SDS011;662;48.814;9.318;2024-03-22T11:04:29;7.13;;;6.43;;
1336;SDS011;662;48.814;9.318;2024-03-22T11:06:56;6.23;;;5.63;;
1336;SDS011;662;48.814;9.318;2024-03-22T11:09:25;6.20;;;5.60;;
1336;SDS011;662;48.814;9.318;2024-03-22T11:11:52;6.13;;;5.53;;
1336;SDS011;662;48.814;9.318;2024-03-22T11:14:18;6.87;;;6.17;;
1336;SDS011;662;48.814;9.318;2024-03-22T11:16:49;6.87;;;6.17;;
1336;SDS011;662;48.814;9.318;2024-03-22T11:19:15;7.90;;;6.83;;
1336;SDS011;662;48.814;9.318;2024-03-22T11:21:41;6.90;;;5.80;;
1336;SDS011;662;48.814;9.318;2024-03-22T11:24:06;7.80;;;6.10;;
1336;SDS011;662;48.814;9.318;2024-03-22T11:26:32;8.43;;;5.60;;
1336;SDS011;662;48.814;9.318;2024-03-22T11:28:58;8.23;;;6.10;;
1336;SDS011;662;48.814;9.318;2024-03-22T11:31:24;7.17;;;5.57;;
1336;SDS011;662;48.814;9.318;2024-03-22T11:33:52;5.77;;;4.73;;
1336;SDS011;662;48.814;9.318;2024-03-22T11:36:19;10.13;;;5.47;;
1336;SDS011;662;48.814;9.318;2024-03-22T11:38:45;7.80;;;5.87;;
1336;SDS011;662;48.814;9.318;2024-03-22T11:41:14;7.60;;;6.40;;
1336;SDS011;662;48.814;9.318;2024-03-22T11:43:44;8.40;;;5.70;;
1336;SDS011;662;48.814;9.318;2024-03-22T11:46:12;6.40;;;5.37;;
1336;SDS011;662;48.814;9.318;2024-03-22T11:48:40;10.30;;;5.10;;
1336;SDS011;662;48.814;9.318;2024-03-22T11:51:06;6.47;;;5.37;;
1336;SDS011;662;48.814;9.318;2024-03-22T11:53:33;8.20;;;5.90;;
1336;SDS011;662;48.814;9.318;2024-03-22T11:56:00;6.60;;;5.03;;
1336;SDS011;662;48.814;9.318;2024-03-22T11:58:26;12.80;;;5.60;;
1336;SDS011;662;48.814;9.318;2024-03-22T12:00:52;6.13;;;5.23;;
1336;SDS011;662;48.814;9.318;2024-03-22T12:03:18;6.97;;;5.40;;
1336;SDS011;662;48.814;9.318;2024-03-22T12:05:44;7.10;;;6.07;;
1336;SDS011;662;48.814;9.318;2024-03-22T12:08:10;6.50;;;5.30;;
1336;SDS011;662;48.814;9.318;2024-03-22T12:10:36;9.63;;;5.40;;
1336;SDS011;662;48.814;9.318;2024-03-22T12:13:02;6.57;;;5.60;;
1336;SDS011;662;48.814;9.318;2024-03-22T12:15:28;6.47;;;5.70;;
1336;SDS011;662;48.814;9.318;2024-03-22T12:17:53;11.70;;;5.50;;
1336;SDS011;662;48.814;9.318;2024-03-22T12:20:19;8.03;;;5.30;;
1336;SDS011;662;48.814;9.318;2024-03-22T12:22:45;6.30;;;5.10;;
1336;SDS011;662;48.814;9.318;2024-03-22T12:25:11;7.63;;;5.40;;
1336;SDS011;662;48.814;9.318;2024-03-22T12:27:37;9.90;;;5.03;;
1336;SDS011;662;48.814;9.318;2024-03-22T12:30:04;5.03;;;4.40;;
1336;SDS011;662;48.814;9.318;2024-03-22T12:32:31;6.73;;;4.43;;
1336;SDS011;662;48.814;9.318;2024-03-22T12:34:56;5.60;;;5.10;;
1336;SDS011;662;48.814;9.318;2024-03-22T12:37:22;7.47;;;4.90;;
1336;SDS011;662;48.814;9.318;2024-03-22T12:39:48;7.73;;;5.83;;
1336;SDS011;662;48.814;9.318;2024-03-22T12:42:13;8.43;;;5.00;;
1336;SDS011;662;48.814;9.318;2024-03-22T12:44:39;5.40;;;4.90;;
1336;SDS011;662;48.814;9.318;2024-03-22T12:47:04;5.37;;;4.70;;
1336;SDS011;662;48.814;9.318;2024-03-22T12:49:30;8.00;;;4.97;;
1336;SDS011;662;48.814;9.318;2024-03-22T12:51:56;7.40;;;4.80;;
1336;SDS011;662;48.814;9.318;2024-03-22T12:54:22;7.07;;;5.40;;
1336;SDS011;662;48.814;9.318;2024-03-22T12:56:48;6.20;;;5.00;;
1336;SDS011;662;48.814;9.318;2024-03-22T12:59:14;9.30;;;5.10;;
1336;SDS011;662;48.814;9.318;2024-03-22T13:01:40;7.10;;;5.17;;
1336;SDS011;662;48.814;9.318;2024-03-22T13:04:05;6.40;;;5.73;;
1336;SDS011;662;48.814;9.318;2024-03-22T13:06:31;7.00;;;5.40;;
1336;SDS011;662;48.814;9.318;2024-03-22T13:08:59;5.50;;;5.00;;
1336;SDS011;662;48.814;9.318;2024-03-22T13:11:25;13.70;;;5.50;;
1336;SDS011;662;48.814;9.318;2024-03-22T13:13:51;6.17;;;5.07;;
1336;SDS011;662;48.814;9.318;2024-03-22T13:16:17;6.40;;;5.20;;
1336;SDS011;662;48.814;9.318;2024-03-22T13:18:43;6.33;;;4.90;;
1336;SDS011;662;48.814;9.318;2024-03-22T13:21:09;5.57;;;4.20;;
1336;SDS011;662;48.814;9.318;2024-03-22T13:23:36;7.33;;;5.03;;
1336;SDS011;662;48.814;9.318;2024-03-22T13:26:02;5.00;;;4.10;;
1336;SDS011;662;48.814;9.318;2024-03-22T13:28:29;6.80;;;4.77;;
1336;SDS011;662;48.814;9.318;2024-03-22T13:31:01;4.80;;;4.27;;
1336;SDS011;662;48.814;9.318;2024-03-22T13:33:33;4.57;;;3.97;;
1336;SDS011;662;48.814;9.318;2024-03-22T13:36:00;5.03;;;4.60;;
1336;SDS011;662;48.814;9.318;2024-03-22T13:38:26;5.00;;;4.57;;
1336;SDS011;662;48.814;9.318;2024-03-22T13:40:52;6.33;;;3.43;;
1336;SDS011;662;48.814;9.318;2024-03-22T13:43:21;6.50;;;4.73;;
1336;SDS011;662;48.814;9.318;2024-03-22T13:45:49;5.93;;;3.80;;
1336;SDS011;662;48.814;9.318;2024-03-22T13:48:20;4.00;;;2.93;;
1336;SDS011;662;48.814;9.318;2024-03-22T13:50:55;4.63;;;3.63;;
1336;SDS011;662;48.814;9.318;2024-03-22T13:53:21;4.00;;;3.60;;
1336;SDS011;662;48.814;9.318;2024-03-22T13:55:48;5.43;;;4.00;;
1336;SDS011;662;48.814;9.318;2024-03-22T13:58:14;9.23;;;4.30;;
1336;SDS011;662;48.814;9.318;2024-03-22T14:00:40;4.53;;;3.30;;
1336;SDS011;662;48.814;9.318;2024-03-22T14:03:05;7.67;;;3.70;;
1336;SDS011;662;48.814;9.318;2024-03-22T14:05:31;5.23;;;3.80;;
1336;SDS011;662;48.814;9.318;2024-03-22T14:07:58;5.20;;;3.97;;
1336;SDS011;662;48.814;9.318;2024-03-22T14:10:26;4.10;;;3.70;;
1336;SDS011;662;48.814;9.318;2024-03-22T14:12:52;5.30;;;4.43;;
1336;SDS011;662;48.814;9.318;2024-03-22T14:15:18;5.13;;;3.80;;
1336;SDS011;662;48.814;9.318;2024-03-22T14:17:44;6.77;;;4.07;;
1336;SDS011;662;48.814;9.318;2024-03-22T14:20:10;4.27;;;3.53;;
1336;SDS011;662;48.814;9.318;2024-03-22T14:22:42;7.70;;;3.60;;
1336;SDS011;662;48.814;9.318;2024-03-22T14:25:08;4.60;;;3.70;;
1336;SDS011;662;48.814;9.318;2024-03-22T14:27:34;4.57;;;4.13;;
1336;SDS011;662;48.814;9.318;2024-03-22T14:30:00;4.30;;;3.90;;
1336;SDS011;662;48.814;9.318;2024-03-22T14:32:30;6.07;;;3.50;;
1336;SDS011;662;48.814;9.318;2024-03-22T14:34:56;4.57;;;4.13;;
1336;SDS011;662;48.814;9.318;2024-03-22T14:37:22;6.53;;;3.70;;
1336;SDS011;662;48.814;9.318;2024-03-22T14:39:48;4.70;;;3.83;;
1336;SDS011;662;48.814;9.318;2024-03-22T14:42:13;6.60;;;4.03;;
1336;SDS011;662;48.814;9.318;2024-03-22T14:44:39;11.63;;;4.40;;
1336;SDS011;662;48.814;9.318;2024-03-22T14:47:05;4.90;;;4.30;;
1336;SDS011;662;48.814;9.318;2024-03-22T14:49:31;4.10;;;3.70;;
1336;SDS011;662;48.814;9.318;2024-03-22T14:52:08;6.90;;;4.67;;
1336;SDS011;662;48.814;9.318;2024-03-22T14:54:34;4.33;;;3.83;;
1336;SDS011;662;48.814;9.318;2024-03-22T14:57:00;4.90;;;4.13;;
1336;SDS011;662;48.814;9.318;2024-03-22T14:59:29;5.90;;;3.93;;
1336;SDS011;662;48.814;9.318;2024-03-22T15:01:54;5.20;;;3.70;;
1336;SDS011;662;48.814;9.318;2024-03-22T15:04:21;7.30;;;3.40;;
1336;SDS011;662;48.814;9.318;2024-03-22T15:06:47;4.43;;;2.97;;
1336;SDS011;662;48.814;9.318;2024-03-22T15:09:15;3.50;;;2.73;;
1336;SDS011;662;48.814;9.318;2024-03-22T15:11:43;2.30;;;2.10;;